Decoded Metar for KRCM ( in _UNIDENTIFIED) (IATA:N/A) | Meteo·Mobile Aviation Weather
aviador You're here:

KRCM Decoded Metar

in _UNIDENTIFIED
Report Time2018-11-16 18:15:00
UTC Time2018-11-16 18:23:59
Flight Rules vfr VFR
Wind270° at 03 kt
W.Decomp.*RWY 31: 2.0 kt HW 2.2 kt LCW
RWY 18: 0.4 kt HW 3.0 kt RCW
W.Rank270° ranks 27
Current wind is below 270° avg. (6.8)
Visibility9999 m
Phenomena:N/A
Clouds:N/A
Expected CloudBase > 3,600 ft AGL from Temp-Dew spread
CeilingNone
Temp11°C (ISA -2)
Dew Point02°C (54% RH)
AAT8.3°C
QNH1020 hPa
Density Alt377 ft
Elevation801 ft
Report Wrong Elevation
Raw Report
METAR KRCM 161815Z AUTO 27003KT 10SM CLR 11/02 A3011 RMK AO2=

Extra information for KRCM:More info

Metar Taf Metar & Taf Last 4 Metars F.Rules Stats Wind Profile Meteogram Temp Stats Metar ALERT Operation Metar Decoded Social comments